Time;durP1;ratioP1;P1;durP2;ratioP2;P2;SDS_P1;SDS_P2;PMS_P1;PMS_P2;Temp;Humidity;BMP_temperature;BMP_pressure;BME280_temperature;BME280_humidity;BME280_pressure;Samples;Min_cycle;Max_cycle;Signal;HPM_P1;HPM_P2
2022/10/17 00:01:06;;;;;;;18.20;8.07;;;12.60;73.20;;;;;;4996431;28;20287;-79
2022/10/17 00:03:36;;;;;;;16.93;7.23;;;12.60;73.30;;;;;;4999177;28;20197;-79
2022/10/17 00:06:07;;;;;;;15.03;7.43;;;12.60;73.30;;;;;;5013193;28;20242;-79
2022/10/17 00:08:36;;;;;;;15.67;7.47;;;12.60;73.30;;;;;;5003049;28;20225;-78
2022/10/17 00:11:07;;;;;;;18.53;8.07;;;12.60;73.30;;;;;;4997523;28;20292;-78
2022/10/17 00:13:36;;;;;;;13.43;6.93;;;12.60;73.30;;;;;;4998758;28;20231;-79
2022/10/17 00:16:05;;;;;;;15.40;7.57;;;12.60;73.30;;;;;;4996352;28;20228;-79
2022/10/17 00:18:33;;;;;;;16.00;7.90;;;12.50;73.20;;;;;;4995433;28;20234;-79
2022/10/17 00:21:01;;;;;;;17.03;8.00;;;12.50;73.20;;;;;;4996574;28;20286;-79
2022/10/17 00:23:30;;;;;;;13.63;8.07;;;12.50;73.30;;;;;;5001182;28;20280;-79
2022/10/17 00:25:59;;;;;;;13.93;6.73;;;12.50;73.30;;;;;;4994027;28;20221;-79
2022/10/17 00:28:29;;;;;;;14.33;7.57;;;12.50;73.40;;;;;;4999967;28;21343;-78
2022/10/17 00:30:58;;;;;;;13.77;7.60;;;12.40;73.30;;;;;;4993737;28;20276;-79
2022/10/17 00:33:27;;;;;;;14.83;7.50;;;12.40;73.30;;;;;;4993530;28;20235;-78
2022/10/17 00:36:04;;;;;;;14.83;8.10;;;12.40;73.50;;;;;;4999009;28;20221;-79
2022/10/17 00:38:32;;;;;;;14.40;8.53;;;12.40;73.50;;;;;;4996263;28;21120;-79
2022/10/17 00:41:00;;;;;;;16.60;7.50;;;12.30;73.50;;;;;;5000175;28;20220;-77
2022/10/17 00:43:48;;;;;;;13.90;7.73;;;12.30;73.50;;;;;;4997662;28;20256;-78
2022/10/17 00:46:16;;;;;;;13.60;7.63;;;12.30;73.60;;;;;;4993259;28;20272;-79
2022/10/17 00:48:46;;;;;;;15.23;7.67;;;12.30;73.50;;;;;;5003741;28;20255;-78
2022/10/17 00:51:15;;;;;;;15.37;8.37;;;12.30;73.60;;;;;;5000212;28;20946;-78
2022/10/17 00:53:44;;;;;;;15.83;7.40;;;12.20;73.70;;;;;;4995361;28;20236;-78
2022/10/17 00:56:12;;;;;;;13.60;7.23;;;12.20;73.80;;;;;;4999669;28;20189;-78
2022/10/17 00:58:42;;;;;;;14.40;7.20;;;12.20;73.70;;;;;;5006127;28;20220;-79
2022/10/17 01:01:10;;;;;;;17.53;7.90;;;12.20;73.70;;;;;;5005409;28;22177;-79
2022/10/17 01:03:39;;;;;;;13.97;7.90;;;12.10;73.80;;;;;;4999381;28;21181;-79
2022/10/17 01:06:07;;;;;;;16.53;7.83;;;12.10;73.80;;;;;;5003590;28;20216;-78
2022/10/17 01:08:36;;;;;;;17.13;7.37;;;12.10;73.90;;;;;;4993675;28;20786;-79
2022/10/17 01:11:17;;;;;;;15.87;7.47;;;12.10;74.10;;;;;;4993870;28;20192;-79
2022/10/17 01:13:53;;;;;;;11.43;6.50;;;12.00;74.00;;;;;;5004531;28;20279;-79
2022/10/17 01:16:31;;;;;;;13.73;7.43;;;12.00;74.10;;;;;;5004820;28;20247;-76
2022/10/17 01:19:13;;;;;;;16.03;8.07;;;12.00;74.10;;;;;;4998750;28;20239;-78
2022/10/17 01:21:49;;;;;;;14.20;6.93;;;11.90;74.20;;;;;;5000320;28;20192;-78
2022/10/17 01:24:55;;;;;;;14.10;7.70;;;12.00;74.30;;;;;;4994811;28;20197;-79
2022/10/17 01:27:45;;;;;;;15.33;7.67;;;11.90;74.20;;;;;;4986275;28;20280;-79
2022/10/17 01:30:46;;;;;;;13.33;7.87;;;11.90;75.10;;;;;;4985718;28;20542;-79
2022/10/17 01:33:21;;;;;;;14.73;8.13;;;11.90;74.40;;;;;;4989611;28;20188;-79
2022/10/17 01:35:54;;;;;;;12.90;7.70;;;11.80;74.40;;;;;;4991217;28;20217;-78
2022/10/17 01:38:27;;;;;;;14.50;7.60;;;11.80;75.20;;;;;;4991762;28;20193;-79
2022/10/17 01:41:02;;;;;;;15.43;8.00;;;11.80;74.50;;;;;;4987659;28;21796;-79
2022/10/17 01:43:37;;;;;;;18.00;8.60;;;11.80;74.60;;;;;;4999107;28;20199;-80
2022/10/17 01:46:12;;;;;;;15.07;7.87;;;11.80;74.70;;;;;;5005757;28;20801;-79
2022/10/17 01:48:45;;;;;;;11.70;7.10;;;11.70;74.70;;;;;;5002240;28;20192;-78
2022/10/17 01:51:18;;;;;;;13.87;8.17;;;11.70;74.70;;;;;;5003121;28;20220;-77
2022/10/17 01:53:52;;;;;;;18.87;8.67;;;11.70;74.80;;;;;;5010222;28;20188;-78
2022/10/17 01:56:24;;;;;;;16.53;7.53;;;11.70;74.80;;;;;;5001525;28;20236;-79
2022/10/17 01:58:57;;;;;;;15.03;8.50;;;11.70;74.90;;;;;;4992683;28;20259;-78
2022/10/17 02:01:28;;;;;;;14.60;8.27;;;11.60;74.90;;;;;;4991280;28;20231;-79
2022/10/17 02:03:57;;;;;;;18.53;8.23;;;11.60;74.90;;;;;;4989476;28;20197;-79
2022/10/17 02:06:26;;;;;;;14.73;8.37;;;11.60;74.90;;;;;;4994692;28;20224;-79
2022/10/17 02:08:54;;;;;;;14.53;8.57;;;11.60;74.90;;;;;;5000210;28;20287;-80
2022/10/17 02:11:24;;;;;;;11.63;7.40;;;11.60;75.00;;;;;;4989720;28;20235;-78
2022/10/17 02:14:12;;;;;;;18.65;9.57;;;11.50;75.00;;;;;;4995469;28;20884;-79
2022/10/17 02:16:52;;;;;;;15.83;8.73;;;11.50;75.80;;;;;;5009780;28;20600;-78
2022/10/17 02:19:36;;;;;;;17.87;9.70;;;11.50;75.80;;;;;;5003377;28;20235;-78
2022/10/17 02:22:16;;;;;;;19.23;8.43;;;11.40;75.60;;;;;;4996116;28;20845;-79
2022/10/17 02:24:50;;;;;;;15.97;7.20;;;11.40;75.50;;;;;;4998262;28;20192;-78
2022/10/17 02:27:30;;;;;;;17.77;8.37;;;11.40;76.30;;;;;;5001676;28;20712;-78
2022/10/17 02:30:04;;;;;;;14.30;8.37;;;11.40;75.50;;;;;;4996172;28;20646;-78
2022/10/17 02:32:41;;;;;;;18.63;9.13;;;11.40;75.50;;;;;;4999658;28;20283;-78
2022/10/17 02:35:17;;;;;;;20.27;8.13;;;11.40;75.50;;;;;;4995447;28;20217;-78
2022/10/17 02:37:47;;;;;;;18.90;8.90;;;11.30;75.50;;;;;;5001234;28;20200;-78
2022/10/17 02:40:18;;;;;;;17.83;9.60;;;11.30;75.50;;;;;;5005500;28;20627;-78
2022/10/17 02:42:47;;;;;;;13.03;8.50;;;11.30;75.60;;;;;;5007044;28;20231;-79
2022/10/17 02:45:16;;;;;;;15.80;9.23;;;11.30;75.60;;;;;;5013559;28;20224;-78
2022/10/17 02:47:55;;;;;;;21.97;9.53;;;11.20;75.60;;;;;;4995817;28;20287;-79
2022/10/17 02:50:33;;;;;;;20.87;9.80;;;11.20;75.60;;;;;;5000517;28;20197;-79
2022/10/17 02:53:06;;;;;;;24.27;10.87;;;11.20;75.70;;;;;;4999762;28;21723;-78
2022/10/17 02:55:40;;;;;;;24.10;11.27;;;11.20;75.80;;;;;;4990379;28;20279;-79
2022/10/17 02:58:14;;;;;;;20.03;10.30;;;11.20;75.80;;;;;;5001475;28;20619;-78
2022/10/17 03:00:43;;;;;;;20.20;11.07;;;11.10;75.80;;;;;;5009310;28;20288;-79
2022/10/17 03:03:25;;;;;;;23.33;10.33;;;11.10;75.80;;;;;;5011932;28;20724;-78
2022/10/17 03:05:54;;;;;;;20.07;10.23;;;11.10;75.80;;;;;;4992347;28;20347;-78
2022/10/17 03:08:22;;;;;;;26.63;10.03;;;11.10;75.80;;;;;;4997453;28;20744;-78
2022/10/17 03:10:51;;;;;;;20.03;10.17;;;11.10;75.80;;;;;;5001436;28;20194;-78
2022/10/17 03:13:19;;;;;;;17.97;9.97;;;11.10;75.90;;;;;;5003970;28;20205;-77
2022/10/17 03:15:47;;;;;;;17.67;9.00;;;11.00;75.90;;;;;;4999579;28;20287;-79
2022/10/17 03:18:16;;;;;;;18.13;9.67;;;11.10;75.90;;;;;;5012450;28;20243;-79
2022/10/17 03:20:45;;;;;;;20.67;10.83;;;11.00;75.90;;;;;;5000051;28;20297;-79
2022/10/17 03:23:13;;;;;;;19.67;10.53;;;11.00;75.90;;;;;;5000957;28;20312;-79
2022/10/17 03:25:42;;;;;;;19.13;10.57;;;11.00;75.90;;;;;;4994471;28;20256;-80
2022/10/17 03:28:12;;;;;;;23.70;9.67;;;11.00;76.00;;;;;;4993769;28;20298;-79
2022/10/17 03:30:40;;;;;;;20.03;10.47;;;11.00;76.00;;;;;;5007806;28;20274;-77
2022/10/17 03:33:08;;;;;;;21.27;10.73;;;11.00;76.10;;;;;;4999116;28;20635;-78
2022/10/17 03:35:39;;;;;;;19.03;10.10;;;11.00;76.10;;;;;;5000818;28;20259;-78
2022/10/17 03:38:09;;;;;;;21.67;10.60;;;10.90;76.10;;;;;;4994386;28;20200;-78
2022/10/17 03:40:37;;;;;;;15.47;10.00;;;10.90;76.20;;;;;;5000287;28;20287;-79
2022/10/17 03:43:06;;;;;;;17.80;10.33;;;10.90;76.20;;;;;;4996920;28;20287;-79
2022/10/17 03:45:34;;;;;;;21.13;10.40;;;10.90;76.20;;;;;;5005702;28;20559;-79
2022/10/17 03:48:02;;;;;;;21.10;10.57;;;10.90;76.20;;;;;;4997302;28;20193;-79
2022/10/17 03:50:30;;;;;;;25.07;10.63;;;10.90;76.20;;;;;;5006919;28;20283;-79
2022/10/17 03:52:59;;;;;;;18.63;10.73;;;10.90;76.30;;;;;;4997178;28;20193;-79
2022/10/17 03:55:28;;;;;;;19.55;11.07;;;10.90;76.30;;;;;;4999512;28;20472;-79
2022/10/17 03:57:56;;;;;;;19.90;10.30;;;10.90;77.10;;;;;;5003870;28;20716;-79
2022/10/17 04:00:25;;;;;;;20.57;10.87;;;10.90;77.10;;;;;;4991681;28;20271;-78
2022/10/17 04:02:53;;;;;;;16.07;9.87;;;10.90;77.00;;;;;;4995591;28;20192;-78
2022/10/17 04:05:21;;;;;;;17.07;10.17;;;10.90;77.00;;;;;;4995239;28;20267;-78
2022/10/17 04:07:50;;;;;;;19.47;10.50;;;10.90;77.00;;;;;;4997897;28;20224;-78
2022/10/17 04:10:19;;;;;;;18.70;10.73;;;10.80;77.00;;;;;;5003444;28;20538;-78
2022/10/17 04:12:49;;;;;;;18.03;9.00;;;10.80;76.90;;;;;;4996518;28;20243;-79
2022/10/17 04:15:17;;;;;;;17.50;9.53;;;10.80;77.00;;;;;;4997730;28;20254;-78
2022/10/17 04:17:45;;;;;;;15.50;9.50;;;10.80;77.00;;;;;;4995944;28;20280;-78
2022/10/17 04:20:15;;;;;;;21.08;10.90;;;10.80;77.20;;;;;;5000514;28;20911;-79
2022/10/17 04:22:44;;;;;;;16.93;9.20;;;10.80;77.60;;;;;;5009218;28;20255;-79
2022/10/17 04:25:12;;;;;;;17.30;9.00;;;10.80;77.60;;;;;;4989462;28;20197;-79
2022/10/17 04:27:40;;;;;;;17.00;9.57;;;10.80;77.60;;;;;;5004420;28;20221;-79
2022/10/17 04:30:11;;;;;;;16.43;9.33;;;10.80;77.60;;;;;;4989495;28;20229;-79
2022/10/17 04:32:39;;;;;;;16.77;8.43;;;10.80;77.70;;;;;;4998373;28;20192;-78
2022/10/17 04:35:08;;;;;;;18.63;8.23;;;10.80;77.70;;;;;;5001101;28;20736;-78
2022/10/17 04:37:37;;;;;;;18.33;10.03;;;10.70;77.60;;;;;;5001824;28;20534;-78
2022/10/17 04:40:06;;;;;;;18.80;9.70;;;10.70;77.50;;;;;;4994160;28;20228;-79
2022/10/17 04:42:34;;;;;;;17.10;8.20;;;10.70;77.50;;;;;;5005144;28;20216;-79
2022/10/17 04:45:02;;;;;;;12.07;7.93;;;10.70;77.50;;;;;;4996713;28;20280;-80
2022/10/17 04:47:32;;;;;;;16.93;8.83;;;10.70;77.50;;;;;;4989825;28;20252;-78
2022/10/17 04:50:00;;;;;;;15.90;8.53;;;10.70;77.50;;;;;;4998462;28;20204;-79
2022/10/17 04:52:29;;;;;;;20.17;9.90;;;10.70;77.40;;;;;;4988890;28;20197;-76
2022/10/17 04:54:58;;;;;;;17.27;9.43;;;10.70;77.40;;;;;;5003741;28;20199;-79
2022/10/17 04:57:26;;;;;;;20.00;10.07;;;10.70;77.40;;;;;;5000511;28;20541;-79
2022/10/17 04:59:57;;;;;;;14.87;9.23;;;10.70;77.50;;;;;;5003263;28;20677;-76
2022/10/17 05:02:25;;;;;;;17.30;8.80;;;10.60;77.50;;;;;;4997549;28;20190;-79
2022/10/17 05:04:55;;;;;;;18.60;10.50;;;10.60;77.60;;;;;;5001791;28;20650;-79
2022/10/17 05:07:23;;;;;;;19.03;10.40;;;10.70;77.70;;;;;;5003896;28;20319;-79
2022/10/17 05:09:52;;;;;;;22.80;9.87;;;10.70;77.70;;;;;;4998745;28;20258;-79
2022/10/17 05:12:20;;;;;;;15.90;9.33;;;10.70;77.70;;;;;;5006919;28;20238;-79
2022/10/17 05:14:48;;;;;;;18.57;9.67;;;10.70;77.70;;;;;;4998579;28;20221;-78
2022/10/17 05:17:17;;;;;;;19.25;11.38;;;10.70;77.70;;;;;;5001638;28;20954;-79
2022/10/17 05:19:45;;;;;;;19.43;9.97;;;10.70;78.60;;;;;;4991834;28;20197;-78
2022/10/17 05:22:15;;;;;;;16.40;10.13;;;10.70;78.70;;;;;;5000999;28;20260;-77
2022/10/17 05:24:43;;;;;;;15.47;9.37;;;10.80;79.70;;;;;;5002284;28;20603;-78
2022/10/17 05:27:11;;;;;;;21.13;10.37;;;10.80;79.00;;;;;;5001300;28;20266;-78
2022/10/17 05:29:39;;;;;;;17.27;10.30;;;10.80;79.00;;;;;;4997909;28;20189;-79
2022/10/17 05:32:08;;;;;;;17.63;10.13;;;10.90;79.10;;;;;;5005364;28;20219;-78
2022/10/17 05:34:36;;;;;;;18.50;10.33;;;10.90;79.30;;;;;;5003988;28;20200;-78
2022/10/17 05:37:04;;;;;;;18.87;9.77;;;10.90;79.30;;;;;;4999271;28;20282;-77
2022/10/17 05:39:34;;;;;;;27.40;10.37;;;10.90;79.40;;;;;;4997491;28;20560;-78
2022/10/17 05:42:02;;;;;;;24.20;12.10;;;10.90;79.40;;;;;;5005268;28;20477;-78
2022/10/17 05:44:30;;;;;;;21.17;10.87;;;11.00;80.90;;;;;;5000776;28;20275;-79
2022/10/17 05:46:59;;;;;;;19.93;9.93;;;11.00;80.60;;;;;;5008356;28;20275;-79
2022/10/17 05:49:27;;;;;;;18.03;10.03;;;11.10;80.80;;;;;;5006235;28;20231;-81
2022/10/17 05:52:15;;;;;;;20.10;11.27;;;11.10;80.50;;;;;;5005496;28;20200;-81
2022/10/17 05:54:45;;;;;;;16.50;9.67;;;11.20;80.40;;;;;;5006971;28;20259;-80
2022/10/17 05:57:13;;;;;;;18.50;10.20;;;11.20;80.50;;;;;;4998133;28;20204;-81
2022/10/17 05:59:41;;;;;;;19.60;9.77;;;11.30;80.60;;;;;;5006452;28;20212;-81
2022/10/17 06:02:11;;;;;;;23.27;13.70;;;11.30;80.40;;;;;;4998989;28;20197;-81
2022/10/17 06:04:44;;;;;;;22.47;13.73;;;11.40;80.40;;;;;;5004038;28;20683;-81
2022/10/17 06:07:12;;;;;;;32.10;20.43;;;11.50;80.60;;;;;;5008051;28;20296;-81
2022/10/17 06:09:41;;;;;;;29.77;18.17;;;11.50;80.60;;;;;;5004323;28;20193;-81
2022/10/17 06:12:10;;;;;;;39.57;23.90;;;11.60;80.60;;;;;;5004597;28;20669;-78
2022/10/17 06:14:39;;;;;;;35.73;20.30;;;11.60;81.40;;;;;;5000581;28;20539;-77
2022/10/17 06:17:07;;;;;;;31.63;19.13;;;11.70;80.50;;;;;;5005506;28;20196;-78
2022/10/17 06:19:43;;;;;;;23.10;15.50;;;11.80;80.40;;;;;;5006378;28;20211;-78
2022/10/17 06:22:12;;;;;;;24.43;13.97;;;11.80;80.70;;;;;;4998931;28;20215;-76
2022/10/17 06:24:41;;;;;;;25.33;15.13;;;11.90;80.40;;;;;;4998130;28;20228;-78
2022/10/17 06:27:11;;;;;;;22.87;13.90;;;12.00;80.30;;;;;;4997443;28;20301;-78
2022/10/17 06:29:39;;;;;;;28.73;17.13;;;12.00;80.20;;;;;;4987712;28;20275;-77
2022/10/17 06:32:08;;;;;;;33.17;18.00;;;12.10;80.10;;;;;;4994574;28;20205;-78
2022/10/17 06:34:42;;;;;;;31.47;17.27;;;12.10;80.00;;;;;;5000623;28;20201;-77
2022/10/17 06:37:10;;;;;;;26.80;15.07;;;12.20;79.90;;;;;;4986610;28;20248;-79
2022/10/17 06:39:38;;;;;;;25.97;14.87;;;12.30;79.90;;;;;;4978747;28;20201;-78
2022/10/17 06:42:07;;;;;;;30.03;14.27;;;12.40;79.80;;;;;;4982433;28;20212;-78
2022/10/17 06:44:40;;;;;;;19.30;11.73;;;12.50;79.70;;;;;;4978991;28;20197;-75
2022/10/17 06:47:09;;;;;;;25.30;13.00;;;12.60;79.60;;;;;;4983054;28;20225;-75
2022/10/17 06:49:55;;;;;;;28.73;12.70;;;12.60;79.40;;;;;;4983147;28;20190;-76
2022/10/17 06:52:23;;;;;;;17.60;10.53;;;12.70;80.10;;;;;;4990984;28;20205;-75
2022/10/17 06:54:52;;;;;;;23.87;11.00;;;12.80;79.10;;;;;;4981303;28;20190;-74
2022/10/17 06:57:20;;;;;;;18.63;11.00;;;12.90;78.80;;;;;;4978008;28;20240;-74
2022/10/17 06:59:50;;;;;;;22.60;10.60;;;12.90;78.70;;;;;;4991654;28;20197;-75
2022/10/17 07:02:19;;;;;;;19.20;9.40;;;13.00;78.60;;;;;;4979455;28;20221;-75
2022/10/17 07:04:47;;;;;;;16.90;11.00;;;13.10;78.40;;;;;;4979302;28;20284;-75
2022/10/17 07:07:15;;;;;;;18.03;9.00;;;13.20;78.30;;;;;;4986325;28;20290;-74
2022/10/17 07:09:44;;;;;;;16.80;10.27;;;13.30;78.10;;;;;;4987652;28;20332;-74
2022/10/17 07:12:12;;;;;;;26.33;9.63;;;13.40;78.10;;;;;;4977907;28;20202;-74
2022/10/17 07:14:40;;;;;;;22.63;9.40;;;13.40;78.00;;;;;;4983630;28;20618;-75
2022/10/17 07:17:12;;;;;;;17.70;9.33;;;13.50;77.90;;;;;;4980589;28;20205;-75
2022/10/17 07:19:43;;;;;;;20.37;9.97;;;13.60;77.80;;;;;;4976256;28;20225;-75
2022/10/17 07:22:19;;;;;;;19.63;10.20;;;13.70;77.20;;;;;;4980587;28;20198;-75
2022/10/17 07:25:03;;;;;;;17.63;9.70;;;13.80;77.00;;;;;;4978631;28;20193;-74
2022/10/17 07:27:32;;;;;;;22.07;9.33;;;13.90;77.00;;;;;;4982913;28;20645;-77
2022/10/17 07:30:00;;;;;;;18.03;9.17;;;14.00;76.90;;;;;;4985702;28;20606;-78
2022/10/17 07:32:29;;;;;;;17.43;7.67;;;14.10;76.70;;;;;;4978668;28;20300;-78
2022/10/17 07:34:58;;;;;;;14.03;7.93;;;14.20;76.40;;;;;;4975484;28;20240;-78
2022/10/17 07:37:26;;;;;;;13.93;7.33;;;14.20;76.00;;;;;;4979792;28;20623;-77
2022/10/17 07:39:55;;;;;;;12.43;6.83;;;14.30;75.70;;;;;;4979150;28;20613;-77
2022/10/17 07:42:24;;;;;;;13.63;6.67;;;14.40;75.50;;;;;;4977959;28;20253;-75
2022/10/17 07:44:54;;;;;;;9.47;5.83;;;14.50;75.30;;;;;;4987656;28;20636;-75
2022/10/17 07:47:29;;;;;;;10.47;5.80;;;14.50;74.70;;;;;;4979129;28;20197;-75
2022/10/17 07:50:01;;;;;;;10.80;5.73;;;14.60;74.50;;;;;;4983319;28;20223;-75
2022/10/17 07:52:29;;;;;;;8.47;5.30;;;14.70;74.40;;;;;;4981185;28;20220;-75
2022/10/17 07:54:58;;;;;;;9.87;4.37;;;14.80;74.10;;;;;;4977877;28;20234;-75
2022/10/17 07:57:26;;;;;;;13.40;5.37;;;14.90;72.90;;;;;;4980023;28;20232;-76
2022/10/17 07:59:55;;;;;;;12.93;4.10;;;15.00;72.70;;;;;;4979680;28;20197;-77
2022/10/17 08:02:25;;;;;;;8.00;4.67;;;15.10;72.80;;;;;;4984057;28;20194;-77
2022/10/17 08:04:54;;;;;;;11.40;4.13;;;15.10;71.50;;;;;;4980516;28;20276;-75
2022/10/17 08:07:23;;;;;;;10.63;4.00;;;15.20;71.30;;;;;;4978786;28;20693;-77
2022/10/17 08:09:56;;;;;;;7.73;4.33;;;15.30;69.60;;;;;;4979898;28;20868;-77
2022/10/17 08:12:25;;;;;;;7.73;4.30;;;15.30;66.90;;;;;;4978858;28;20284;-78
2022/10/17 08:14:53;;;;;;;7.60;3.90;;;15.40;68.10;;;;;;4978340;28;20228;-77
2022/10/17 08:17:21;;;;;;;8.43;3.73;;;15.50;68.60;;;;;;4987252;28;20197;-79
2022/10/17 08:19:49;;;;;;;10.27;3.90;;;15.60;68.80;;;;;;4978675;28;20615;-78
2022/10/17 08:22:18;;;;;;;14.33;3.43;;;15.70;68.80;;;;;;4985107;28;20251;-78
2022/10/17 08:24:48;;;;;;;5.73;3.60;;;15.80;68.50;;;;;;4984103;28;20197;-80
2022/10/17 08:27:22;;;;;;;6.63;3.63;;;15.80;68.20;;;;;;4987363;28;20204;-80
2022/10/17 08:29:52;;;;;;;7.77;4.20;;;15.90;68.10;;;;;;4987315;28;20256;-75
2022/10/17 08:32:22;;;;;;;6.33;3.90;;;16.00;68.00;;;;;;4979021;28;20225;-76
2022/10/17 08:34:51;;;;;;;9.37;4.73;;;16.10;67.30;;;;;;4980609;28;20300;-75
2022/10/17 08:37:19;;;;;;;6.87;4.03;;;16.10;66.60;;;;;;4981055;28;20643;-76
2022/10/17 08:39:49;;;;;;;9.63;3.97;;;16.20;65.90;;;;;;4977984;28;20906;-77
2022/10/17 08:43:02;;;;;;;8.60;3.47;;;16.20;65.40;;;;;;4980426;28;20301;-76
2022/10/17 08:45:35;;;;;;;10.30;4.13;;;16.30;64.10;;;;;;4971132;28;20881;-75
2022/10/17 08:48:09;;;;;;;12.53;3.70;;;16.40;63.50;;;;;;4984868;28;20224;-75
2022/10/17 08:50:42;;;;;;;10.47;3.77;;;16.40;63.40;;;;;;4983916;28;20197;-76
2022/10/17 08:53:18;;;;;;;6.30;3.50;;;16.50;64.10;;;;;;4973581;28;20198;-75
2022/10/17 08:55:50;;;;;;;8.77;3.20;;;16.60;64.30;;;;;;4983082;28;20240;-75
2022/10/17 08:58:21;;;;;;;9.40;3.93;;;16.70;64.70;;;;;;4981899;28;20199;-75
2022/10/17 09:01:00;;;;;;;10.27;3.90;;;16.70;63.50;;;;;;4974730;28;20201;-76
2022/10/17 09:03:54;;;;;;;6.37;3.33;;;16.80;63.30;;;;;;4982210;28;20193;-75
2022/10/17 09:06:28;;;;;;;8.33;3.30;;;16.90;63.70;;;;;;4980090;28;20248;-78
2022/10/17 09:09:17;;;;;;;5.40;3.20;;;17.00;63.90;;;;;;4980382;28;20213;-75
2022/10/17 09:12:00;;;;;;;11.67;3.70;;;17.10;63.80;;;;;;4975368;28;20198;-75
2022/10/17 09:14:44;;;;;;;8.03;3.00;;;17.20;63.30;;;;;;4983551;28;20197;-76
2022/10/17 09:17:24;;;;;;;5.63;2.80;;;17.20;61.40;;;;;;4977223;28;20220;-75
2022/10/17 09:20:00;;;;;;;7.23;2.30;;;17.30;61.60;;;;;;4979788;28;20248;-77
2022/10/17 09:22:34;;;;;;;6.50;2.63;;;17.40;61.90;;;;;;4985734;28;20682;-77
2022/10/17 09:25:06;;;;;;;4.87;2.40;;;17.50;61.60;;;;;;4979719;28;20602;-78
2022/10/17 09:27:43;;;;;;;12.17;3.30;;;17.50;61.30;;;;;;4981990;28;20592;-75
2022/10/17 09:30:34;;;;;;;9.47;3.10;;;17.60;61.20;;;;;;4978192;28;20217;-75
2022/10/17 09:33:19;;;;;;;9.85;2.85;;;17.70;59.80;;;;;;4990317;28;20454;-76
2022/10/17 09:36:13;;;;;;;7.87;2.50;;;17.70;58.60;;;;;;4981613;28;20648;-80
2022/10/17 09:38:43;;;;;;;6.83;2.30;;;17.70;57.90;;;;;;4974688;28;20284;-77
2022/10/17 09:41:18;;;;;;;7.60;2.70;;;17.80;58.50;;;;;;4981636;28;20193;-75
2022/10/17 09:44:17;;;;;;;6.67;2.23;;;17.90;58.90;;;;;;4980734;28;20203;-75
2022/10/17 09:47:09;;;;;;;7.50;2.33;;;17.90;59.10;;;;;;4987028;28;20556;-75
2022/10/17 09:49:39;;;;;;;4.77;2.17;;;18.00;58.90;;;;;;4985008;28;20232;-75
2022/10/17 09:52:12;;;;;;;6.47;2.23;;;18.00;57.50;;;;;;4981796;28;20221;-75
2022/10/17 09:54:44;;;;;;;7.13;2.57;;;18.10;57.80;;;;;;4978477;28;20252;-75
2022/10/17 09:57:13;;;;;;;6.07;2.13;;;18.10;58.00;;;;;;4980106;28;20197;-76
2022/10/17 09:59:45;;;;;;;8.63;2.20;;;18.20;58.10;;;;;;4985552;28;20198;-78
2022/10/17 10:02:20;;;;;;;7.83;2.07;;;18.30;57.90;;;;;;4981913;28;20658;-75
2022/10/17 10:05:00;;;;;;;5.23;2.03;;;18.30;56.40;;;;;;4976622;28;20552;-79
2022/10/17 10:07:37;;;;;;;4.77;2.00;;;18.40;56.00;;;;;;4981360;28;20276;-79
2022/10/17 10:10:08;;;;;;;6.93;2.20;;;18.40;55.70;;;;;;4982784;28;20228;-76
2022/10/17 10:12:38;;;;;;;4.67;2.40;;;18.50;56.20;;;;;;4982596;28;20224;-75
2022/10/17 10:15:32;;;;;;;5.87;2.63;;;18.50;56.70;;;;;;4980774;28;20744;-77
2022/10/17 10:18:01;;;;;;;5.73;2.87;;;18.60;56.60;;;;;;4976209;28;20294;-77
2022/10/17 10:20:33;;;;;;;4.83;2.50;;;18.60;56.40;;;;;;4978442;28;20237;-75
2022/10/17 10:23:13;;;;;;;4.27;2.50;;;18.70;56.20;;;;;;4973619;28;20255;-76
2022/10/17 10:25:59;;;;;;;6.13;2.77;;;18.70;55.30;;;;;;4979104;28;20600;-77
2022/10/17 10:28:30;;;;;;;6.23;2.30;;;18.80;56.00;;;;;;4989630;28;20201;-78
2022/10/17 10:31:04;;;;;;;5.00;2.60;;;18.80;56.30;;;;;;4980215;28;20614;-76
2022/10/17 10:33:35;;;;;;;7.67;2.63;;;18.90;55.60;;;;;;4991454;28;20734;-76
2022/10/17 10:36:08;;;;;;;9.50;2.77;;;18.90;55.90;;;;;;4986714;28;20331;-79
2022/10/17 10:38:41;;;;;;;7.10;2.90;;;19.00;56.30;;;;;;4983782;28;20288;-77
2022/10/17 10:41:11;;;;;;;5.43;2.50;;;19.00;56.00;;;;;;4981311;28;20243;-77
2022/10/17 10:43:43;;;;;;;5.37;2.57;;;19.10;56.00;;;;;;4981536;28;20205;-75
2022/10/17 10:46:19;;;;;;;6.70;2.77;;;19.10;55.80;;;;;;4980480;28;20229;-76
2022/10/17 10:48:53;;;;;;;4.87;2.53;;;19.10;55.70;;;;;;4986073;28;20197;-77
2022/10/17 10:51:27;;;;;;;5.70;2.90;;;19.20;54.70;;;;;;4983555;28;20686;-77
2022/10/17 10:54:03;;;;;;;7.13;2.93;;;19.20;54.30;;;;;;4984307;28;21654;-76
2022/10/17 10:56:37;;;;;;;6.97;3.00;;;19.20;54.00;;;;;;4985396;28;20186;-74
2022/10/17 10:59:12;;;;;;;7.60;3.10;;;19.30;54.20;;;;;;4990099;28;20225;-74
2022/10/17 11:01:48;;;;;;;8.63;3.20;;;19.40;54.80;;;;;;4988556;28;20674;-76
2022/10/17 11:04:27;;;;;;;6.97;2.93;;;19.40;54.80;;;;;;4981092;28;20217;-75
2022/10/17 11:07:01;;;;;;;7.17;2.70;;;19.40;55.20;;;;;;4975688;28;20244;-74
2022/10/17 11:09:40;;;;;;;9.27;2.93;;;19.50;55.30;;;;;;4981366;28;20228;-74
2022/10/17 11:12:17;;;;;;;11.23;3.13;;;19.50;53.80;;;;;;4982029;28;20232;-75
2022/10/17 11:14:51;;;;;;;4.50;2.43;;;19.50;54.20;;;;;;4992316;28;20291;-75
2022/10/17 11:17:28;;;;;;;6.37;2.53;;;19.60;54.60;;;;;;4981943;28;20675;-74
2022/10/17 11:20:16;;;;;;;6.90;3.13;;;19.60;54.90;;;;;;4986426;28;20650;-75
2022/10/17 11:22:47;;;;;;;6.60;2.20;;;19.70;54.90;;;;;;4978531;28;20235;-74
2022/10/17 11:25:24;;;;;;;5.30;2.30;;;19.70;54.60;;;;;;4983791;28;20251;-74
2022/10/17 11:27:52;;;;;;;23.63;3.73;;;19.80;54.70;;;;;;4988511;28;20686;-75
2022/10/17 11:30:23;;;;;;;9.37;2.97;;;19.80;54.40;;;;;;4978839;28;20222;-76
2022/10/17 11:32:56;;;;;;;11.10;3.40;;;19.90;53.90;;;;;;4990642;28;20208;-75
2022/10/17 11:35:27;;;;;;;6.13;2.80;;;19.90;53.70;;;;;;4980024;28;20263;-76
2022/10/17 11:38:06;;;;;;;8.77;3.08;;;19.90;54.00;;;;;;4984909;28;20259;-75
2022/10/17 11:40:38;;;;;;;6.35;2.72;;;19.90;53.60;;;;;;4992161;28;20227;-76
2022/10/17 11:43:14;;;;;;;9.43;2.70;;;20.00;54.00;;;;;;4975979;28;20228;-76
2022/10/17 11:45:47;;;;;;;5.27;2.80;;;20.00;53.70;;;;;;4987239;28;20816;-75
2022/10/17 11:48:23;;;;;;;7.82;2.60;;;20.10;54.10;;;;;;4979754;28;20284;-77
2022/10/17 11:51:00;;;;;;;4.80;2.28;;;20.10;54.20;;;;;;4981121;28;20330;-77
2022/10/17 11:53:55;;;;;;;8.20;3.13;;;20.20;54.40;;;;;;4976732;28;20284;-76
2022/10/17 11:56:31;;;;;;;8.40;2.80;;;20.20;54.40;;;;;;4978893;28;20197;-76
2022/10/17 11:59:17;;;;;;;7.00;3.08;;;20.30;54.20;;;;;;4980563;28;20189;-76
2022/10/17 12:01:52;;;;;;;8.85;2.60;;;20.30;53.90;;;;;;4978529;28;20205;-76
2022/10/17 12:04:39;;;;;;;5.65;2.90;;;20.40;53.20;;;;;;4978865;28;20563;-75
2022/10/17 12:07:18;;;;;;;5.25;2.72;;;20.40;53.30;;;;;;4977235;28;20194;-77
2022/10/17 12:09:54;;;;;;;5.43;2.80;;;20.40;53.20;;;;;;4984250;28;20189;-76
2022/10/17 12:12:28;;;;;;;5.93;3.10;;;20.50;53.30;;;;;;4980151;28;20248;-76
2022/10/17 12:15:28;;;;;;;6.18;2.72;;;20.60;53.40;;;;;;4982552;28;20294;-76
2022/10/17 12:18:00;;;;;;;8.25;3.05;;;20.60;53.20;;;;;;4990809;28;20243;-76
2022/10/17 12:20:32;;;;;;;10.45;3.10;;;20.60;52.80;;;;;;4981128;28;20254;-76
2022/10/17 12:23:19;;;;;;;9.32;2.80;;;20.70;53.20;;;;;;4984585;28;20213;-75
2022/10/17 12:25:52;;;;;;;7.35;2.72;;;20.70;53.30;;;;;;4977321;28;20217;-76
2022/10/17 12:28:30;;;;;;;7.25;2.78;;;20.80;52.80;;;;;;4987892;28;20228;-77
2022/10/17 12:31:01;;;;;;;5.70;3.40;;;20.80;52.20;;;;;;4979110;28;20208;-77
2022/10/17 12:33:34;;;;;;;6.68;2.78;;;20.80;52.30;;;;;;4979576;28;20231;-77
2022/10/17 12:36:48;;;;;;;11.90;2.78;;;20.90;52.10;;;;;;4987599;28;20311;-78
2022/10/17 12:39:51;;;;;;;7.85;3.05;;;21.00;51.60;;;;;;4983661;28;20239;-78
2022/10/17 12:42:48;;;;;;;4.80;2.75;;;21.00;51.40;;;;;;4990726;28;20228;-77
2022/10/17 12:45:46;;;;;;;5.45;2.53;;;21.20;52.00;;;;;;4988215;28;20288;-75
2022/10/17 12:48:53;;;;;;;5.03;2.83;;;21.40;52.80;;;;;;4987037;28;20256;-79
2022/10/17 12:51:24;;;;;;;5.53;2.75;;;21.70;52.30;;;;;;4980244;28;20767;-76
2022/10/17 12:54:12;;;;;;;5.55;2.83;;;21.80;51.90;;;;;;4979802;28;20942;-76
2022/10/17 12:56:44;;;;;;;7.88;2.83;;;22.00;49.40;;;;;;4987617;28;20221;-77
2022/10/17 12:59:16;;;;;;;5.28;2.97;;;21.90;49.80;;;;;;4974099;28;20197;-78
2022/10/17 13:01:48;;;;;;;7.53;2.70;;;21.90;49.60;;;;;;4982051;28;20194;-77
2022/10/17 13:04:17;;;;;;;7.30;3.00;;;21.90;49.70;;;;;;4979058;28;20201;-77
2022/10/17 13:06:49;;;;;;;6.40;2.70;;;21.90;49.70;;;;;;4979311;28;20252;-79
2022/10/17 13:09:24;;;;;;;8.07;2.70;;;21.80;49.40;;;;;;4978424;28;20249;-79